sensor_id;sensor_type;location;lat;lon;timestamp;temperature;humidity
21518;DHT22;61765;45.794;24.150;2023-02-03T00:01:36;8.80;86.80
21518;DHT22;61765;45.794;24.150;2023-02-03T00:09:44;9.10;86.60
21518;DHT22;61765;45.794;24.150;2023-02-03T00:17:49;9.10;86.10
21518;DHT22;61765;45.794;24.150;2023-02-03T00:25:59;9.00;86.50
21518;DHT22;61765;45.794;24.150;2023-02-03T00:34:10;9.00;86.70
21518;DHT22;61765;45.794;24.150;2023-02-03T00:42:18;8.70;87.80
21518;DHT22;61765;45.794;24.150;2023-02-03T00:50:24;8.70;87.30
21518;DHT22;61765;45.794;24.150;2023-02-03T00:58:33;9.00;86.60
21518;DHT22;61765;45.794;24.150;2023-02-03T01:06:39;9.10;85.90
21518;DHT22;61765;45.794;24.150;2023-02-03T01:14:48;9.20;85.30
21518;DHT22;61765;45.794;24.150;2023-02-03T01:22:53;8.90;85.40
21518;DHT22;61765;45.794;24.150;2023-02-03T01:31:11;9.20;85.60
21518;DHT22;61765;45.794;24.150;2023-02-03T01:39:17;9.20;84.30
21518;DHT22;61765;45.794;24.150;2023-02-03T01:47:28;9.30;84.50
21518;DHT22;61765;45.794;24.150;2023-02-03T01:55:37;9.40;84.10
21518;DHT22;61765;45.794;24.150;2023-02-03T02:03:50;9.40;83.90
21518;DHT22;61765;45.794;24.150;2023-02-03T02:11:56;9.50;83.60
21518;DHT22;61765;45.794;24.150;2023-02-03T02:20:26;9.20;83.60
21518;DHT22;61765;45.794;24.150;2023-02-03T02:28:49;9.30;83.70
21518;DHT22;61765;45.794;24.150;2023-02-03T02:37:08;9.20;83.80
21518;DHT22;61765;45.794;24.150;2023-02-03T02:45:23;9.20;83.80
21518;DHT22;61765;45.794;24.150;2023-02-03T02:53:36;9.30;83.50
21518;DHT22;61765;45.794;24.150;2023-02-03T03:01:43;9.20;84.00
21518;DHT22;61765;45.794;24.150;2023-02-03T03:09:54;9.10;84.00
21518;DHT22;61765;45.794;24.150;2023-02-03T03:18:06;9.10;83.90
21518;DHT22;61765;45.794;24.150;2023-02-03T03:26:21;9.10;83.70
21518;DHT22;61765;45.794;24.150;2023-02-03T03:34:29;9.00;83.70
21518;DHT22;61765;45.794;24.150;2023-02-03T03:42:42;9.00;84.40
21518;DHT22;61765;45.794;24.150;2023-02-03T03:50:54;9.10;83.70
21518;DHT22;61765;45.794;24.150;2023-02-03T03:59:03;8.80;83.90
21518;DHT22;61765;45.794;24.150;2023-02-03T04:07:12;8.60;83.90
21518;DHT22;61765;45.794;24.150;2023-02-03T04:15:20;8.50;84.00
21518;DHT22;61765;45.794;24.150;2023-02-03T04:23:26;8.30;84.40
21518;DHT22;61765;45.794;24.150;2023-02-03T04:31:34;8.60;83.70
21518;DHT22;61765;45.794;24.150;2023-02-03T04:39:40;8.60;83.60
21518;DHT22;61765;45.794;24.150;2023-02-03T04:47:50;8.50;83.60
21518;DHT22;61765;45.794;24.150;2023-02-03T04:55:57;8.70;83.00
21518;DHT22;61765;45.794;24.150;2023-02-03T05:04:05;8.60;82.80
21518;DHT22;61765;45.794;24.150;2023-02-03T05:12:10;8.70;82.50
21518;DHT22;61765;45.794;24.150;2023-02-03T05:20:19;8.80;82.00
21518;DHT22;61765;45.794;24.150;2023-02-03T05:28:24;8.80;81.90
21518;DHT22;61765;45.794;24.150;2023-02-03T05:36:32;8.80;81.90
21518;DHT22;61765;45.794;24.150;2023-02-03T05:44:38;8.80;81.60
21518;DHT22;61765;45.794;24.150;2023-02-03T05:52:46;8.80;82.30
21518;DHT22;61765;45.794;24.150;2023-02-03T06:00:52;8.70;82.30
21518;DHT22;61765;45.794;24.150;2023-02-03T06:09:00;8.80;82.20
21518;DHT22;61765;45.794;24.150;2023-02-03T06:17:06;8.90;82.00
21518;DHT22;61765;45.794;24.150;2023-02-03T06:25:14;9.10;82.20
21518;DHT22;61765;45.794;24.150;2023-02-03T06:33:20;9.10;81.30
21518;DHT22;61765;45.794;24.150;2023-02-03T06:41:28;9.20;81.20
21518;DHT22;61765;45.794;24.150;2023-02-03T06:49:34;9.10;81.80
21518;DHT22;61765;45.794;24.150;2023-02-03T06:57:46;9.10;81.80
21518;DHT22;61765;45.794;24.150;2023-02-03T07:05:51;9.10;81.30
21518;DHT22;61765;45.794;24.150;2023-02-03T07:14:00;9.20;80.60
21518;DHT22;61765;45.794;24.150;2023-02-03T07:22:05;9.00;80.90
21518;DHT22;61765;45.794;24.150;2023-02-03T07:30:14;9.20;80.70
21518;DHT22;61765;45.794;24.150;2023-02-03T07:38:20;9.10;81.00
21518;DHT22;61765;45.794;24.150;2023-02-03T07:46:29;9.20;80.60
21518;DHT22;61765;45.794;24.150;2023-02-03T07:54:34;9.60;80.00
21518;DHT22;61765;45.794;24.150;2023-02-03T08:02:43;10.50;79.40
21518;DHT22;61765;45.794;24.150;2023-02-03T08:10:48;10.90;77.80
21518;DHT22;61765;45.794;24.150;2023-02-03T08:18:56;11.30;76.10
21518;DHT22;61765;45.794;24.150;2023-02-03T08:27:02;11.50;74.60
21518;DHT22;61765;45.794;24.150;2023-02-03T08:35:10;12.00;73.60
21518;DHT22;61765;45.794;24.150;2023-02-03T08:43:16;12.00;73.10
21518;DHT22;61765;45.794;24.150;2023-02-03T08:51:24;12.60;70.60
21518;DHT22;61765;45.794;24.150;2023-02-03T08:59:29;15.20;64.50
21518;DHT22;61765;45.794;24.150;2023-02-03T09:07:41;16.40;60.90
21518;DHT22;61765;45.794;24.150;2023-02-03T09:15:47;16.70;59.10
21518;DHT22;61765;45.794;24.150;2023-02-03T09:23:55;16.20;59.60
21518;DHT22;61765;45.794;24.150;2023-02-03T09:32:04;18.00;58.40
21518;DHT22;61765;45.794;24.150;2023-02-03T09:40:19;18.30;55.10
21518;DHT22;61765;45.794;24.150;2023-02-03T09:48:31;17.00;56.50
21518;DHT22;61765;45.794;24.150;2023-02-03T09:56:42;22.10;53.70
21518;DHT22;61765;45.794;24.150;2023-02-03T10:04:57;24.00;47.60
21518;DHT22;61765;45.794;24.150;2023-02-03T10:13:14;21.50;49.80
21518;DHT22;61765;45.794;24.150;2023-02-03T10:21:33;21.10;50.10
21518;DHT22;61765;45.794;24.150;2023-02-03T10:29:43;19.70;50.80
21518;DHT22;61765;45.794;24.150;2023-02-03T10:37:50;18.60;53.00
21518;DHT22;61765;45.794;24.150;2023-02-03T10:46:00;17.30;54.40
21518;DHT22;61765;45.794;24.150;2023-02-03T10:54:26;16.40;55.70
21518;DHT22;61765;45.794;24.150;2023-02-03T11:02:36;15.60;57.60
21518;DHT22;61765;45.794;24.150;2023-02-03T11:10:42;15.20;59.20
21518;DHT22;61765;45.794;24.150;2023-02-03T11:18:54;14.80;58.90
21518;DHT22;61765;45.794;24.150;2023-02-03T11:27:03;14.10;61.40
21518;DHT22;61765;45.794;24.150;2023-02-03T11:35:18;14.00;61.60
21518;DHT22;61765;45.794;24.150;2023-02-03T11:43:25;13.70;62.30
21518;DHT22;61765;45.794;24.150;2023-02-03T11:51:41;13.10;61.60
21518;DHT22;61765;45.794;24.150;2023-02-03T12:00:09;12.70;62.40
21518;DHT22;61765;45.794;24.150;2023-02-03T12:08:31;11.70;63.40
21518;DHT22;61765;45.794;24.150;2023-02-03T12:25:35;11.20;66.10
21518;DHT22;61765;45.794;24.150;2023-02-03T12:33:45;11.70;64.00
21518;DHT22;61765;45.794;24.150;2023-02-03T12:41:59;11.60;64.10
21518;DHT22;61765;45.794;24.150;2023-02-03T12:50:12;11.50;64.90
21518;DHT22;61765;45.794;24.150;2023-02-03T12:58:24;11.30;64.10
21518;DHT22;61765;45.794;24.150;2023-02-03T13:06:42;10.70;64.80
21518;DHT22;61765;45.794;24.150;2023-02-03T13:14:55;10.60;66.40
21518;DHT22;61765;45.794;24.150;2023-02-03T13:23:05;10.70;66.20
21518;DHT22;61765;45.794;24.150;2023-02-03T13:31:24;10.50;66.30
21518;DHT22;61765;45.794;24.150;2023-02-03T13:39:51;10.70;67.60
21518;DHT22;61765;45.794;24.150;2023-02-03T13:48:08;10.70;67.80
21518;DHT22;61765;45.794;24.150;2023-02-03T13:56:19;10.50;68.00
21518;DHT22;61765;45.794;24.150;2023-02-03T14:04:52;10.50;69.10
21518;DHT22;61765;45.794;24.150;2023-02-03T14:12:59;10.10;69.40
21518;DHT22;61765;45.794;24.150;2023-02-03T14:21:15;9.90;70.30
21518;DHT22;61765;45.794;24.150;2023-02-03T14:29:26;9.40;71.70
21518;DHT22;61765;45.794;24.150;2023-02-03T14:37:36;9.40;73.10
21518;DHT22;61765;45.794;24.150;2023-02-03T14:54:23;9.10;74.90
21518;DHT22;61765;45.794;24.150;2023-02-03T15:02:33;9.00;75.30
21518;DHT22;61765;45.794;24.150;2023-02-03T15:10:43;8.90;75.70
21518;DHT22;61765;45.794;24.150;2023-02-03T15:18:58;8.70;75.30
21518;DHT22;61765;45.794;24.150;2023-02-03T15:27:23;9.00;75.10
21518;DHT22;61765;45.794;24.150;2023-02-03T15:35:30;8.80;74.80
21518;DHT22;61765;45.794;24.150;2023-02-03T15:43:42;8.60;75.60
21518;DHT22;61765;45.794;24.150;2023-02-03T15:51:52;8.90;75.30
21518;DHT22;61765;45.794;24.150;2023-02-03T16:00:09;8.70;75.80
21518;DHT22;61765;45.794;24.150;2023-02-03T16:08:36;8.50;76.60
21518;DHT22;61765;45.794;24.150;2023-02-03T16:16:57;8.40;78.00
21518;DHT22;61765;45.794;24.150;2023-02-03T16:25:16;8.40;78.20
21518;DHT22;61765;45.794;24.150;2023-02-03T16:33:25;8.60;78.30
21518;DHT22;61765;45.794;24.150;2023-02-03T16:41:48;8.50;78.40
21518;DHT22;61765;45.794;24.150;2023-02-03T16:50:16;8.30;78.00
21518;DHT22;61765;45.794;24.150;2023-02-03T16:58:47;8.30;78.80
21518;DHT22;61765;45.794;24.150;2023-02-03T17:06:55;8.10;79.20
21518;DHT22;61765;45.794;24.150;2023-02-03T17:15:08;8.30;79.40
21518;DHT22;61765;45.794;24.150;2023-02-03T17:23:17;8.30;79.80
21518;DHT22;61765;45.794;24.150;2023-02-03T17:31:23;8.10;80.80
21518;DHT22;61765;45.794;24.150;2023-02-03T17:39:32;8.10;81.20
21518;DHT22;61765;45.794;24.150;2023-02-03T17:47:51;8.30;80.50
21518;DHT22;61765;45.794;24.150;2023-02-03T17:56:17;8.10;80.60
21518;DHT22;61765;45.794;24.150;2023-02-03T18:04:27;8.20;79.80
21518;DHT22;61765;45.794;24.150;2023-02-03T18:12:35;8.50;78.80
21518;DHT22;61765;45.794;24.150;2023-02-03T18:20:44;8.30;78.50
21518;DHT22;61765;45.794;24.150;2023-02-03T18:28:53;7.70;79.00
21518;DHT22;61765;45.794;24.150;2023-02-03T18:36:59;7.60;81.00
21518;DHT22;61765;45.794;24.150;2023-02-03T18:45:09;8.10;80.40
21518;DHT22;61765;45.794;24.150;2023-02-03T18:53:15;8.20;80.00
21518;DHT22;61765;45.794;24.150;2023-02-03T19:01:25;8.30;80.50
21518;DHT22;61765;45.794;24.150;2023-02-03T19:09:31;8.30;81.80
21518;DHT22;61765;45.794;24.150;2023-02-03T19:17:39;8.10;82.90
21518;DHT22;61765;45.794;24.150;2023-02-03T19:25:49;8.10;83.60
21518;DHT22;61765;45.794;24.150;2023-02-03T19:33:59;7.80;84.40
21518;DHT22;61765;45.794;24.150;2023-02-03T19:42:04;7.70;84.70
21518;DHT22;61765;45.794;24.150;2023-02-03T19:50:13;7.50;86.30
21518;DHT22;61765;45.794;24.150;2023-02-03T19:58:18;7.20;86.90
21518;DHT22;61765;45.794;24.150;2023-02-03T20:06:27;7.30;87.40
21518;DHT22;61765;45.794;24.150;2023-02-03T20:14:33;7.10;88.40
21518;DHT22;61765;45.794;24.150;2023-02-03T20:22:41;7.00;88.80
21518;DHT22;61765;45.794;24.150;2023-02-03T20:30:49;6.80;89.60
21518;DHT22;61765;45.794;24.150;2023-02-03T20:38:58;6.90;88.80
21518;DHT22;61765;45.794;24.150;2023-02-03T20:47:04;7.00;88.80
21518;DHT22;61765;45.794;24.150;2023-02-03T20:55:17;6.20;90.50
21518;DHT22;61765;45.794;24.150;2023-02-03T21:03:23;6.50;90.50
21518;DHT22;61765;45.794;24.150;2023-02-03T21:11:59;6.10;90.80
21518;DHT22;61765;45.794;24.150;2023-02-03T21:20:18;6.40;90.80
21518;DHT22;61765;45.794;24.150;2023-02-03T21:28:29;5.90;91.40
21518;DHT22;61765;45.794;24.150;2023-02-03T21:36:37;5.70;92.40
21518;DHT22;61765;45.794;24.150;2023-02-03T21:44:45;5.90;91.90
21518;DHT22;61765;45.794;24.150;2023-02-03T21:52:50;6.10;91.60
21518;DHT22;61765;45.794;24.150;2023-02-03T22:01:00;6.50;91.30
21518;DHT22;61765;45.794;24.150;2023-02-03T22:09:12;6.60;90.90
21518;DHT22;61765;45.794;24.150;2023-02-03T22:17:49;6.70;90.50
21518;DHT22;61765;45.794;24.150;2023-02-03T22:25:58;7.10;90.30
21518;DHT22;61765;45.794;24.150;2023-02-03T22:34:07;7.10;90.00
21518;DHT22;61765;45.794;24.150;2023-02-03T22:42:13;7.40;89.10
21518;DHT22;61765;45.794;24.150;2023-02-03T22:50:21;6.80;90.10
21518;DHT22;61765;45.794;24.150;2023-02-03T22:58:36;6.50;90.00
21518;DHT22;61765;45.794;24.150;2023-02-03T23:06:45;6.80;89.30
21518;DHT22;61765;45.794;24.150;2023-02-03T23:14:51;7.20;88.90
21518;DHT22;61765;45.794;24.150;2023-02-03T23:22:59;7.60;86.80
21518;DHT22;61765;45.794;24.150;2023-02-03T23:31:04;7.10;88.80
21518;DHT22;61765;45.794;24.150;2023-02-03T23:39:13;7.40;87.70
21518;DHT22;61765;45.794;24.150;2023-02-03T23:47:18;7.80;86.60
21518;DHT22;61765;45.794;24.150;2023-02-03T23:55:26;7.70;86.00
